Pagina principale
METAR-TAF:

METAR-TAF

Aeroporti :

Woensdrecht, Paesi Bassi

latitudine: 51-27N, longitudine: 004-20E, altezza: 20 m

Osservazione

Il bollettino è stato emesso 19 minuti fa, alle 17:25 UTC
Vento 11 kt da est/nord-est, variando fra nord/nord-est e est
Temperature 21°C
Umidità 33%
Pressione 1021 hPa
Visibilità 10 km o più
Cielo coperto ad un'altezza di 33000 ft

METAR: EHWO 311725Z AUTO 07011KT 030V100 9999 OVC330 21/04 Q1021 BLU

Ora: 19:44 (17:44 UTC)


TAF: mancante

Osservazioni e previsioni meteorologiche di più di 4000 aeroporti (messaggi METAR e TAF).

Le stazioni disponibili sono rappresentate dai dischi gialli e rossi sulla carta.

Puntare il mouse per vedere il nome della stazione.

Clicca sopra per visualizzare le osservazioni e previsioni meteorologiche.

Per cambiare la mappa : fare clic sui pulsanti verdi con una croce nera per ingrandire, il pulsante verde con un trattino per diminuire, o sulla freccia verde per le mappe adiacenti.


METAR-TAF: